MOOI WEER BOXTEL

Weerstation in Boxtel

Actuele weerinformatie en voorspellingen


Onweer radar Meer informatie blitzortung!


Regen radar Meer informatie rain snow radar


Meer informatie

Template documentation
and downloads

Weblog Hans on Experience

Profiel Hans Mestrum



Het weer levert geen direct gevaar op.    Er zijn geen waarschuwingen afgegeven.

Weather Underground Historische gegevens

Dagelijkse Samenvatting maart 25, 2019 Eenheden:  Metrisch    Engels   Beide
« Vorige Dag
Volgende Dag »
Dagelijkse Wekelijkse Maandelijkse Jaarlijkse Aangepaste
  Huidig: Hoog: Laag: Gemiddeld:
Temperatuur: -12.8 °C -17.8 °C -15.8 °C -13.7 °C
Dauwpunt: -15.3 °C -17.8 °C -16.9 °C -15.9 °C
Vochtigheid: 73 % Humidity % 59 % 75 %
Wind snelheid: 8 km/h 0 km/h 0 km/h 10.3 km/h
Windvlaag: 18.2 km/h 0 km/h - -
Wind:NW - - SW
Luchtdruk: 34760.7 hPa 0 hPa 34577.8 hPa -
Neerslag: 7.62 mm      
Historical Graphs
 
 
Tabel voor maart 25, 2019
Tijd Temperatuur Dauwpunt Luchtdruk Wind Wind snelheid Windvlaag Vochtigheid Regenval per uur
-17.8 °C -17.8 °C 0 hPa Calm     Humidity % 0 mm
00:04 -15.8 °C -16.8 °C 34669.3 hPa Calm   2.6 km/h 88 % 0 mm
00:09 -15.8 °C -16.8 °C 34669.3 hPa Calm   10.3 km/h 88 % 0 mm
00:14 -15.8 °C -16.8 °C 34669.3 hPa Calm   5.1 km/h 88 % 0 mm
00:19 -15.8 °C -16.8 °C 34669.3 hPa Calm   5.1 km/h 88 % 0 mm
00:24 -15.8 °C -16.8 °C 34669.3 hPa Calm   2.6 km/h 88 % 0 mm
00:29 -15.8 °C -16.8 °C 34659.1 hPa Calm   2.6 km/h 88 % 0 mm
00:34 -15.8 °C -16.8 °C 34659.1 hPa Calm   2.6 km/h 88 % 0 mm
00:39 -15.8 °C -16.8 °C 34659.1 hPa Calm   5.1 km/h 88 % 0 mm
00:44 -15.8 °C -16.8 °C 34645.6 hPa SSW 2.9 km/h 7.7 km/h 88 % 0 mm
00:49 -15.8 °C -16.8 °C 34645.6 hPa Calm   5.1 km/h 88 % 0 mm
00:54 -15.8 °C -16.8 °C 34645.6 hPa South 2.9 km/h 2.6 km/h 88 % 0 mm
00:59 -15.8 °C -16.8 °C 34645.6 hPa Calm   5.1 km/h 88 % 0 mm
01:04 -15.8 °C -16.8 °C 34635.4 hPa Calm   5.1 km/h 88 % 0 mm
01:09 -15.8 °C -16.8 °C 34635.4 hPa SSW 2.9 km/h 5.1 km/h 88 % 0 mm
01:14 -15.8 °C -16.8 °C 34635.4 hPa Calm   5.1 km/h 88 % 0 mm
01:19 -15.8 °C -16.9 °C 34625.2 hPa Calm   2.6 km/h 87 % 0 mm
01:24 -15.8 °C -16.8 °C 34625.2 hPa Calm   2.6 km/h 88 % 0 mm
01:29 -15.7 °C -16.7 °C 34625.2 hPa WNW 2.9 km/h 2.6 km/h 88 % 0 mm
01:34 -15.7 °C -16.7 °C 34611.7 hPa Calm   7.7 km/h 88 % 0 mm
01:39 -15.6 °C -16.7 °C 34625.2 hPa Calm   7.7 km/h 87 % 0 mm
01:44 -15.5 °C -16.6 °C 34625.2 hPa West 2.9 km/h 7.7 km/h 87 % 0 mm
01:49 -15.4 °C -16.6 °C 34611.7 hPa West 2.9 km/h 10.3 km/h 87 % 0 mm
01:54 -15.4 °C -16.6 °C 34611.7 hPa Calm   2.6 km/h 86 % 0 mm
01:59 -15.3 °C -16.4 °C 34611.7 hPa West 2.9 km/h 7.7 km/h 87 % 0 mm
02:04 -15.2 °C -16.4 °C 34611.7 hPa Calm     86 % 0 mm
02:09 -15.2 °C -16.3 °C 34611.7 hPa SW 2.9 km/h 2.6 km/h 86 % 0 mm
02:14 -15.1 °C -16.3 °C 34611.7 hPa SSW 2.9 km/h 12.9 km/h 86 % 0 mm
02:19 -15 °C -16.2 °C 34611.7 hPa Calm   5.1 km/h 86 % 0 mm
02:24 -14.9 °C -16.1 °C 34611.7 hPa NNE 2.9 km/h 10.3 km/h 86 % 0 mm
02:29 -14.8 °C -16 °C 34601.5 hPa Calm   2.6 km/h 86 % 0 mm
02:34 -14.7 °C -16 °C 34611.7 hPa Calm   2.6 km/h 85 % 0 mm
02:39 -14.7 °C -15.9 °C 34601.5 hPa Calm   5.1 km/h 85 % 0 mm
02:44 -14.6 °C -15.8 °C 34601.5 hPa Calm   7.7 km/h 85 % 0 mm
02:49 -14.4 °C -15.7 °C 34601.5 hPa SW 2.9 km/h 7.7 km/h 85 % 0 mm
02:54 -14.3 °C -15.7 °C 34601.5 hPa Calm   5.1 km/h 84 % 0 mm
02:59 -14.3 °C -15.7 °C 34601.5 hPa Calm   2.6 km/h 84 % 0 mm
03:04 -14.3 °C -15.7 °C 34601.5 hPa Calm     84 % 0 mm
03:09 -14.2 °C -15.6 °C 34601.5 hPa Calm   5.1 km/h 84 % 0 mm
03:14 -14.2 °C -15.6 °C 34601.5 hPa WNW 2.9 km/h 7.7 km/h 84 % 0 mm
03:19 -14.2 °C -15.6 °C 34601.5 hPa ENE 2.9 km/h 5.1 km/h 84 % 0 mm
03:24 -14.1 °C -15.5 °C 34591.4 hPa WNW 5.1 km/h 7.7 km/h 84 % 0 mm
03:29 -14.1 °C -15.4 °C 34591.4 hPa NE 2.9 km/h 7.7 km/h 84 % 0 mm
03:34 -14.1 °C -15.6 °C 34591.4 hPa Calm   5.1 km/h 83 % 0 mm
03:39 -14 °C -15.5 °C 34591.4 hPa NNE 2.9 km/h 7.7 km/h 83 % 0 mm
03:44 -14 °C -15.5 °C 34577.8 hPa Calm   7.7 km/h 83 % 0 mm
03:49 -13.9 °C -15.4 °C 34577.8 hPa WNW 2.9 km/h 10.3 km/h 83 % 0 mm
03:54 -13.9 °C -15.4 °C 34577.8 hPa West 2.9 km/h 10.3 km/h 83 % 0 mm
03:59 -13.9 °C -15.4 °C 34577.8 hPa NW 5.1 km/h 5.1 km/h 83 % 0 mm
04:04 -13.8 °C -15.3 °C 34577.8 hPa Calm   5.1 km/h 83 % 0 mm
04:09 -13.8 °C -15.4 °C 34577.8 hPa NW 11.1 km/h 23.3 km/h 82 % 0 mm
04:14 -13.7 °C -15.4 °C 34577.8 hPa Calm   5.1 km/h 81 % 0 mm
04:19 -13.7 °C -15.3 °C 34577.8 hPa NW 24.8 km/h 25.9 km/h 81 % 0 mm
04:24 -13.6 °C -15.4 °C 34577.8 hPa NW 5.1 km/h 15.6 km/h 80 % 0 mm
04:29 -13.6 °C -15.5 °C 34577.8 hPa WNW 14 km/h 31.1 km/h 79 % 0 mm
04:34 -13.7 °C -15.7 °C 34577.8 hPa NE 5.1 km/h 10.3 km/h 78 % 0 mm
04:39 -13.7 °C -15.7 °C 34577.8 hPa West 8 km/h 18.2 km/h 78 % 0 mm
04:44 -13.8 °C -15.7 °C 34577.8 hPa NW 5.1 km/h 10.3 km/h 79 % 0 mm
04:49 -13.8 °C -15.7 °C 34577.8 hPa NW 5.1 km/h 23.3 km/h 79 % 0 mm
04:54 -13.8 °C -15.7 °C 34577.8 hPa NNE 8 km/h 12.9 km/h 79 % 0 mm
04:59 -13.9 °C -15.7 °C 34577.8 hPa WNW 2.9 km/h 10.3 km/h 80 % 0 mm
05:04 -14.1 °C -15.8 °C 34577.8 hPa NNW 11.1 km/h 12.9 km/h 80 % 0 mm
05:09 -14.1 °C -15.8 °C 34577.8 hPa NNW 8 km/h 15.6 km/h 80 % 0 mm
05:14 -14.1 °C -15.9 °C 34577.8 hPa WNW 5.1 km/h 23.3 km/h 80 % 0 mm
05:19 -14.2 °C -16 °C 34577.8 hPa North 16.3 km/h 25.9 km/h 80 % 0 mm
05:24 -14.2 °C -15.9 °C 34591.4 hPa NW 16.3 km/h 28.5 km/h 81 % 0 mm
05:29 -14.3 °C -15.9 °C 34591.4 hPa North 8 km/h 15.6 km/h 81 % 0 mm
05:34 -14.3 °C -16 °C 34591.4 hPa NW 8 km/h 18.2 km/h 81 % 0 mm
05:39 -14.3 °C -16 °C 34577.8 hPa NE 2.9 km/h 15.6 km/h 81 % 0 mm
05:44 -14.4 °C -16.1 °C 34591.4 hPa West 11.1 km/h 10.3 km/h 81 % 0 mm
05:49 -14.4 °C -16.1 °C 34577.8 hPa NW 2.9 km/h 5.1 km/h 81 % 0 mm
05:54 -14.4 °C -15.9 °C 34591.4 hPa Calm   18.2 km/h 82 % 0 mm
05:59 -14.4 °C -15.9 °C 34591.4 hPa NNW 5.1 km/h 18.2 km/h 82 % 0 mm
06:04 -14.4 °C -16.1 °C 34591.4 hPa NW 2.9 km/h 33.6 km/h 81 % 0 mm
06:09 -14.3 °C -16.1 °C 34591.4 hPa NW 8 km/h 12.9 km/h 80 % 0 mm
06:14 -14.3 °C -16.1 °C 34591.4 hPa NNW 2.9 km/h 7.7 km/h 80 % 0 mm
06:19 -14.4 °C -16.2 °C 34591.4 hPa WNW 2.9 km/h 12.9 km/h 80 % 0 mm
06:24 -14.4 °C -16.2 °C 34591.4 hPa West 19.2 km/h 25.9 km/h 80 % 0 mm
06:29 -14.4 °C -16.3 °C 34591.4 hPa WNW 14 km/h 12.9 km/h 79 % 0 mm
06:34 -14.4 °C -16.3 °C 34601.5 hPa Calm   15.6 km/h 79 % 0 mm
06:39 -14.5 °C -16.4 °C 34601.5 hPa NW 8 km/h 7.7 km/h 79 % 0 mm
06:44 -14.5 °C -16.4 °C 34601.5 hPa NNW 8 km/h 15.6 km/h 79 % 0 mm
06:49 -14.5 °C -16.4 °C 34601.5 hPa NW 2.9 km/h 12.9 km/h 79 % 0 mm
06:54 -14.5 °C -16.4 °C 34591.4 hPa WSW 8 km/h 10.3 km/h 79 % 0 mm
06:59 -14.5 °C -16.4 °C 34591.4 hPa NW 11.1 km/h 12.9 km/h 79 % 0 mm
07:04 -14.4 °C -16.3 °C 34601.5 hPa NNE 5.1 km/h 10.3 km/h 79 % 0 mm
07:09 -14.4 °C -16.3 °C 34601.5 hPa NNE 8 km/h 18.2 km/h 79 % 0 mm
07:14 -14.4 °C -16.4 °C 34601.5 hPa NNW 8 km/h 25.9 km/h 78 % 0 mm
07:19 -14.4 °C -16.3 °C 34601.5 hPa NW 2.9 km/h 10.3 km/h 79 % 0 mm
07:24 -14.4 °C -16.3 °C 34601.5 hPa NW 14 km/h 15.6 km/h 79 % 0 mm
07:29 -14.3 °C -16.3 °C 34601.5 hPa ENE 2.9 km/h 28.5 km/h 78 % 0 mm
07:34 -14.3 °C -16.3 °C 34601.5 hPa NNE 2.9 km/h 15.6 km/h 78 % 0 mm
07:39 -14.2 °C -16 °C 34601.5 hPa West 5.1 km/h 12.9 km/h 80 % 0 mm
07:44 -14.3 °C -15.9 °C 34611.7 hPa WNW 5.1 km/h 12.9 km/h 81 % 0 mm
07:49 -14.3 °C -16 °C 34601.5 hPa North 5.1 km/h 12.9 km/h 81 % 0 mm
07:54 -14.3 °C -16 °C 34611.7 hPa NNW 5.1 km/h 15.6 km/h 81 % 0 mm
07:59 -14.3 °C -15.9 °C 34611.7 hPa NW 8 km/h 25.9 km/h 81 % 0 mm
08:04 -14.1 °C -15.9 °C 34611.7 hPa WNW 8 km/h 38.8 km/h 80 % 0 mm
08:09 -14.2 °C -16.2 °C 34611.7 hPa NE 16.3 km/h 28.5 km/h 78 % 0 mm
08:14 -14.2 °C -16.2 °C 34611.7 hPa NNW 19.2 km/h 31.1 km/h 78 % 0 mm
08:19 -14.1 °C -16.1 °C 34611.7 hPa NNE 14 km/h 15.6 km/h 78 % 0 mm
08:24 -13.9 °C -16.1 °C 34611.7 hPa NW 8 km/h 18.2 km/h 77 % 0 mm
08:29 -13.8 °C -16.1 °C 34611.7 hPa NW 11.1 km/h 23.3 km/h 75 % 0 mm
08:34 -13.7 °C -16.2 °C 34611.7 hPa NNW 22 km/h 31.1 km/h 73 % 0 mm
08:39 -13.7 °C -16.3 °C 34611.7 hPa WNW 16.3 km/h 25.9 km/h 72 % 0 mm
08:44 -13.6 °C -16.2 °C 34611.7 hPa WNW 2.9 km/h 36.2 km/h 72 % 0 mm
08:49 -13.6 °C -16.3 °C 34611.7 hPa NNW 14 km/h 44.1 km/h 71 % 0 mm
08:54 -13.7 °C -16.3 °C 34611.7 hPa NNW 8 km/h 41.4 km/h 72 % 0 mm
08:59 -13.6 °C -16.2 °C 34611.7 hPa NNW 14 km/h 23.3 km/h 72 % 0 mm
09:04 -13.5 °C -16.1 °C 34611.7 hPa NNE 16.3 km/h 33.6 km/h 72 % 0 mm
09:09 -13.4 °C -16.2 °C 34625.2 hPa NNE 11.1 km/h 25.9 km/h 71 % 0 mm
09:14 -13.4 °C -16.3 °C 34611.7 hPa NE 22 km/h 41.4 km/h 70 % 0 mm
09:19 -13.4 °C -16.2 °C 34625.2 hPa NW 2.9 km/h 31.1 km/h 71 % 0 mm
09:24 -13.5 °C -16.2 °C 34635.4 hPa NNW 27.2 km/h 44.1 km/h 71 % 0 mm
09:29 -13.5 °C -16.2 °C 34635.4 hPa NNW 8 km/h 44.1 km/h 71 % 0 mm
09:34 -13.4 °C -16.1 °C 34635.4 hPa NNE 8 km/h 38.8 km/h 71 % 0 mm
09:39 -13.2 °C -16.1 °C 34635.4 hPa NNW 27.2 km/h 33.6 km/h 70 % 0 mm
09:44 -13 °C -15.9 °C 34645.6 hPa North 14 km/h 23.3 km/h 70 % 0 mm
09:49 -13.1 °C -15.9 °C 34645.6 hPa NE 19.2 km/h 28.5 km/h 70 % 0 mm
09:54 -13.1 °C -16 °C 34645.6 hPa WNW 14 km/h 31.1 km/h 70 % 0 mm
09:59 -13.1 °C -15.9 °C 34645.6 hPa WNW 5.1 km/h 41.4 km/h 70 % 0 mm
10:04 -13 °C -16 °C 34659.1 hPa WNW 11.1 km/h 36.2 km/h 69 % 0 mm
10:09 -12.9 °C -15.9 °C 34645.6 hPa NNW 24.8 km/h 38.8 km/h 69 % 0 mm
10:14 -13 °C -16 °C 34659.1 hPa NNW 11.1 km/h 38.8 km/h 69 % 0 mm
10:19 -13 °C -16 °C 34659.1 hPa WNW 11.1 km/h 28.5 km/h 69 % 0 mm
10:24 -13.1 °C -16.1 °C 34659.1 hPa NNW 11.1 km/h 33.6 km/h 69 % 0 mm
10:29 -12.9 °C -16.1 °C 34659.1 hPa WNW 16.3 km/h 41.4 km/h 68 % 0 mm
10:34 -12.8 °C -15.9 °C 34659.1 hPa NW 14 km/h 31.1 km/h 68 % 0 mm
10:39 -12.9 °C -16.2 °C 34669.3 hPa NW 24.8 km/h 38.8 km/h 66 % 0 mm
10:44 -12.9 °C -16.5 °C 34669.3 hPa NW 11.1 km/h 51.8 km/h 64 % 0 mm
10:49 -12.8 °C -16.3 °C 34669.3 hPa NE 38.3 km/h 44.1 km/h 64 % 0 mm
10:54 -12.6 °C -16.4 °C 34669.3 hPa NE 30.1 km/h 36.2 km/h 62 % 0 mm
10:59 -12.7 °C -16.7 °C 34669.3 hPa North 14 km/h 54.4 km/h 61 % 0 mm
11:04 -12.7 °C -16.7 °C 34682.8 hPa NNE 11.1 km/h 36.2 km/h 61 % 0 mm
11:09 -12.6 °C -16.3 °C 34669.3 hPa NW 14 km/h 49.2 km/h 63 % 0 mm
11:14 -12.4 °C -16.4 °C 34669.3 hPa WNW 30.1 km/h 33.6 km/h 61 % 0 mm
11:19 -12.5 °C -16.7 °C 34669.3 hPa WSW 8 km/h 36.2 km/h 59 % 0 mm
11:24 -12.4 °C -16.6 °C 34669.3 hPa NNE 36 km/h 44.1 km/h 59 % 0 mm
11:29 -12.2 °C -16.3 °C 34669.3 hPa NW 11.1 km/h 25.9 km/h 60 % 0 mm
11:34 -12.4 °C -16.4 °C 34682.8 hPa WNW 16.3 km/h 41.4 km/h 61 % 0 mm
11:39 -12.4 °C -16.3 °C 34682.8 hPa NNE 11.1 km/h 49.2 km/h 62 % 0 mm
11:44 -12.4 °C -16.4 °C 34669.3 hPa NNW 11.1 km/h 38.8 km/h 61 % 0 mm
11:49 -12.3 °C -16.6 °C 34682.8 hPa NW 8 km/h 46.7 km/h 59 % 0 mm
11:54 -12.3 °C -16.1 °C 34682.8 hPa NNW 16.3 km/h 36.2 km/h 63 % 0 mm
11:59 -12.5 °C -15.8 °C 34693 hPa NW 14 km/h 23.3 km/h 66 % 0 mm
12:04 -12.4 °C -16.2 °C 34682.8 hPa SW 14 km/h 46.7 km/h 63 % 0 mm
12:09 -12.6 °C -15.6 °C 34703.1 hPa NNW 22 km/h 46.7 km/h 69 % 0 mm
12:14 -13.1 °C -15.4 °C 34703.1 hPa NW 5.1 km/h 33.6 km/h 75 % 0 mm
12:19 -13.1 °C -15.4 °C 34703.1 hPa NNE 14 km/h 31.1 km/h 75 % 0 mm
12:24 -13 °C -15.4 °C 34693 hPa NNW 8 km/h 23.3 km/h 74 % 0 mm
12:29 -12.9 °C -15.3 °C 34693 hPa North 8 km/h 36.2 km/h 75 % 0 mm
12:34 -12.8 °C -15.3 °C 34693 hPa NNW 8 km/h 31.1 km/h 74 % 0 mm
12:39 -12.7 °C -15.1 °C 34703.1 hPa NE 27.2 km/h 36.2 km/h 74 % 0 mm
12:44 -12.7 °C -15.9 °C 34703.1 hPa NW 16.3 km/h 38.8 km/h 67 % 0 mm
12:49 -12.6 °C -15.9 °C 34703.1 hPa NNE 22 km/h 33.6 km/h 66 % 0 mm
12:54 -12.7 °C -16 °C 34693 hPa NNW 16.3 km/h 28.5 km/h 66 % 0 mm
12:59 -12.6 °C -16 °C 34693 hPa NW 16.3 km/h 38.8 km/h 65 % 0 mm
13:04 -12.5 °C -15.7 °C 34703.1 hPa NE 24.8 km/h 41.4 km/h 67 % 0 mm
13:09 -12.7 °C -15.6 °C 34703.1 hPa WNW 11.1 km/h 51.8 km/h 70 % 0 mm
13:14 -13.1 °C -15 °C 34703.1 hPa NNE 30.1 km/h 31.1 km/h 79 % 7.62 mm
13:19 -13.3 °C -14.8 °C 34703.1 hPa West 2.9 km/h 23.3 km/h 83 % 7.62 mm
13:24 -13.2 °C -14.9 °C 34703.1 hPa NNW 22 km/h 36.2 km/h 81 % 7.62 mm
13:29 -12.9 °C -14.8 °C 34703.1 hPa NW 14 km/h 38.8 km/h 79 % 7.62 mm
13:34 -12.7 °C -15.2 °C 34693 hPa NNE 11.1 km/h 59.5 km/h 74 % 7.62 mm
13:39 -12.6 °C -15.5 °C 34703.1 hPa NNW 33.2 km/h 41.4 km/h 70 % 7.62 mm
13:44 -12.6 °C -15.6 °C 34703.1 hPa WNW 5.1 km/h 41.4 km/h 69 % 7.62 mm
13:49 -12.4 °C -15.6 °C 34693 hPa West 8 km/h 28.5 km/h 68 % 7.62 mm
13:54 -12.4 °C -15.7 °C 34703.1 hPa NNE 19.2 km/h 51.8 km/h 67 % 7.62 mm
13:58 -12.4 °C -15.4 °C 34703.1 hPa WNW 16.3 km/h 15.6 km/h 69 % 7.62 mm
14:03 -12.4 °C -15.4 °C 34703.1 hPa NW 33.2 km/h 33.6 km/h 69 % 7.62 mm
14:08 -12.4 °C -15.4 °C 34703.1 hPa NNW 11.1 km/h 25.9 km/h 69 % 7.62 mm
14:13 -12.4 °C -15.3 °C 34703.1 hPa WNW 8 km/h 46.7 km/h 70 % 0 mm
14:17 -12.6 °C -15.4 °C 34703.1 hPa NNE 11.1 km/h 46.7 km/h 70 % 0 mm
14:22 -12.7 °C -15.3 °C 34703.1 hPa NW 14 km/h 31.1 km/h 72 % 0 mm
14:26 -12.7 °C -15.3 °C 34703.1 hPa NNE 11.1 km/h 28.5 km/h 72 % 0 mm
14:31 -12.5 °C -15.5 °C 34703.1 hPa WNW 24.8 km/h 41.4 km/h 69 % 0 mm
14:37 -12.4 °C -15.7 °C 34703.1 hPa NNW 24.8 km/h 38.8 km/h 67 % 0 mm
14:42 -12.4 °C -15.7 °C 34716.7 hPa NW 11.1 km/h 46.7 km/h 67 % 0 mm
14:47 -12.4 °C -15.6 °C 34703.1 hPa NE 11.1 km/h 33.6 km/h 68 % 0 mm
14:51 -12.4 °C -15.7 °C 34703.1 hPa NE 14 km/h 44.1 km/h 67 % 0 mm
14:56 -12.4 °C -15.7 °C 34716.7 hPa NW 19.2 km/h 36.2 km/h 67 % 0 mm
15:00 -12.4 °C -15.6 °C 34716.7 hPa NE 11.1 km/h 23.3 km/h 68 % 0 mm
15:04 -12.4 °C -15.6 °C 34716.7 hPa NNE 14 km/h 44.1 km/h 68 % 0 mm
15:10 -12.5 °C -15.6 °C 34716.7 hPa NW 14 km/h 31.1 km/h 68 % 0 mm
15:15 -12.4 °C -15.4 °C 34716.7 hPa NW 14 km/h 33.6 km/h 69 % 0 mm
15:20 -12.4 °C -15.4 °C 34716.7 hPa NNW 19.2 km/h 49.2 km/h 69 % 0 mm
15:25 -12.4 °C -15.3 °C 34716.7 hPa North 5.1 km/h 23.3 km/h 70 % 0 mm
15:29 -12.4 °C -15.3 °C 34716.7 hPa North 27.2 km/h 36.2 km/h 70 % 0 mm
15:34 -12.4 °C -15.3 °C 34726.8 hPa NNE 36 km/h 36.2 km/h 70 % 0 mm
15:40 -12.6 °C -15.3 °C 34716.7 hPa NE 11.1 km/h 36.2 km/h 71 % 0 mm
15:44 -12.5 °C -15.2 °C 34716.7 hPa NNE 5.1 km/h 51.8 km/h 72 % 0 mm
15:49 -12.4 °C -15.2 °C 34726.8 hPa NNW 2.9 km/h 33.6 km/h 71 % 0 mm
15:54 -12.4 °C -15.2 °C 34726.8 hPa North 19.2 km/h 38.8 km/h 71 % 0 mm
15:58 -12.4 °C -15.2 °C 34726.8 hPa NNW 14 km/h 33.6 km/h 71 % 0 mm
16:04 -12.4 °C -15.2 °C 34726.8 hPa WNW 36 km/h 41.4 km/h 71 % 0 mm
16:09 -12.5 °C -15.3 °C 34726.8 hPa North 24.8 km/h 38.8 km/h 71 % 0 mm
16:14 -12.6 °C -15.3 °C 34740.4 hPa Calm   46.7 km/h 71 % 0 mm
16:18 -12.6 °C -15.3 °C 34740.4 hPa NNE 11.1 km/h 31.1 km/h 71 % 0 mm
16:23 -12.6 °C -15.2 °C 34740.4 hPa NW 8 km/h 15.6 km/h 72 % 0 mm
16:28 -12.6 °C -15.4 °C 34740.4 hPa NNE 22 km/h 41.4 km/h 71 % 0 mm
16:33 -12.7 °C -15.4 °C 34740.4 hPa NNE 19.2 km/h 33.6 km/h 71 % 0 mm
16:37 -12.7 °C -15.4 °C 34740.4 hPa WSW 11.1 km/h 59.5 km/h 71 % 0 mm
16:43 -12.7 °C -15.3 °C 34740.4 hPa North 22 km/h 31.1 km/h 72 % 0 mm
16:48 -12.7 °C -15.2 °C 34740.4 hPa NNW 8 km/h 28.5 km/h 73 % 0 mm
16:53 -12.7 °C -15.3 °C 34750.5 hPa North 14 km/h 36.2 km/h 72 % 0 mm
16:57 -12.7 °C -15.3 °C 34750.5 hPa North 5.1 km/h 33.6 km/h 72 % 0 mm
17:02 -12.6 °C -15.3 °C 34740.4 hPa NW 14 km/h 31.1 km/h 72 % 0 mm
17:07 -12.6 °C -15.2 °C 34750.5 hPa NW 14 km/h 38.8 km/h 73 % 0 mm
17:11 -12.7 °C -15.3 °C 34750.5 hPa NW 14 km/h 25.9 km/h 72 % 0 mm
17:16 -12.7 °C -15.3 °C 34750.5 hPa North 16.3 km/h 31.1 km/h 73 % 0 mm
17:20 -12.7 °C -15.3 °C 34750.5 hPa NNW 22 km/h 33.6 km/h 73 % 0 mm
17:27 -12.8 °C -15.2 °C 34750.5 hPa NE 22 km/h 23.3 km/h 74 % 0 mm
17:31 -12.7 °C -15.2 °C 34760.7 hPa NNE 16.3 km/h 33.6 km/h 74 % 0 mm
17:36 -12.8 °C -15.3 °C 34760.7 hPa NW 8 km/h 18.2 km/h 73 % 0 mm
Weerstation Boxtel
Gegevens verzameld door Weather Underground - 3.5 mb

Script ontwikkeld door  Jim McMurry - jmcmurry@mwt.net Aangepast voor de template door  Wim van der Kuil - Leuven-Template.eu

U vindt ons ook hier:

Het Weer Aktueel

UK Metoffice

European Weather Network

Weather Underground

Benelux Weer Netwerk

AWEKAS

Citizen Weather Observer Program (CWOP)

HAMweather, WeatherForYou, PWS Weather

Apparatuur in gebruik:

Weerstation
Davis Vue ISS

Weerprogramma
Meteobridge

Weercomputer
Asus WL -330N3G

Webleverancier
Weerhuisje.nl

Davis Vue ISS

Meteobridge

Asus WL -330N3G

Weerhuisje.nl